Time;durP1;ratioP1;P1;durP2;ratioP2;P2;SDS_P1;SDS_P2;PMS_P1;PMS_P2;Temp;Humidity;BMP_temperature;BMP_pressure;BME280_temperature;BME280_humidity;BME280_pressure;Samples;Min_cycle;Max_cycle;Signal;HPM_P1;HPM_P2
2022/02/03 00:02:40;;;;;;;;;10.50;10.00;;;;;22.41;44.98;101541.72;5080959;27;47320;-86
2022/02/03 00:05:17;;;;;;;;;16.25;10.50;;;;;22.43;45.03;101532.81;5080793;28;45412;-85
2022/02/03 00:22:05;;;;;;;;;14.50;10.00;;;;;22.38;45.07;101510.78;5066095;28;45299;-85
2022/02/03 00:24:41;;;;;;;;;12.00;12.00;;;;;22.33;44.79;101514.47;5082297;27;47568;-85
2022/02/03 00:27:16;;;;;;;;;14.75;10.25;;;;;22.35;44.50;101517.97;5080251;28;45263;-85
2022/02/03 00:32:39;;;;;;;;;10.00;10.00;;;;;22.36;44.82;101509.09;5079919;28;45346;-85
2022/02/03 00:35:44;;;;;;;;;11.00;10.50;;;;;22.36;45.09;101509.09;5065711;28;45284;-85
2022/02/03 00:48:44;;;;;;;;;14.00;11.50;;;;;22.35;44.27;101497.56;5065701;28;45369;-86
2022/02/03 00:51:10;;;;;;;;;11.25;11.25;;;;;22.34;44.48;101508.25;5067498;28;45268;-86
2022/02/03 00:53:36;;;;;;;;;11.75;11.00;;;;;22.34;44.28;101501.16;5062960;28;45320;-87
2022/02/03 00:56:04;;;;;;;;;12.50;11.25;;;;;22.33;44.63;101503.81;5079412;28;46096;-86
2022/02/03 00:58:29;;;;;;;;;12.50;12.25;;;;;22.33;44.24;101496.75;5042350;28;45415;-86
2022/02/03 01:00:58;;;;;;;;;10.50;10.25;;;;;22.33;44.51;101493.19;5074757;28;54433;-87
2022/02/03 01:03:26;;;;;;;;;8.75;8.75;;;;;22.31;44.46;101489.72;5059319;28;45359;-86
2022/02/03 01:05:52;;;;;;;;;9.00;9.00;;;;;22.32;44.25;101489.66;5062218;28;48166;-86
2022/02/03 01:08:20;;;;;;;;;11.75;9.25;;;;;22.33;44.31;101499.41;5045639;28;45540;-86
2022/02/03 01:10:53;;;;;;;;;11.75;10.50;;;;;22.31;44.23;101501.22;5062916;28;45346;-85
2022/02/03 01:13:34;;;;;;;;;11.75;9.00;;;;;22.31;44.54;101498.56;5063158;27;45311;-86
2022/02/03 01:35:00;;;;;;;;;10.75;8.75;;;;;22.28;44.18;101488.00;5064833;28;45403;-86
2022/02/03 01:53:32;;;;;;;;;10.50;10.00;;;;;22.27;43.97;101486.28;5064956;28;45376;-86
2022/02/03 01:56:06;;;;;;;;;8.75;8.75;;;;;22.21;43.90;101476.66;5046991;28;45196;-86
2022/02/03 01:58:44;;;;;;;;;8.75;7.75;;;;;22.28;43.70;101482.69;5039868;28;48115;-86
2022/02/03 02:01:09;;;;;;;;;10.00;9.00;;;;;22.26;44.41;101479.22;5078622;27;45673;-86
2022/02/03 02:03:44;;;;;;;;;11.50;8.75;;;;;22.24;44.18;101473.03;5061715;28;53323;-86
2022/02/03 02:06:28;;;;;;;;;10.50;10.50;;;;;22.27;44.09;101478.28;5042316;28;46069;-86
2022/02/03 02:09:00;;;;;;;;;8.50;8.00;;;;;22.26;44.12;101479.22;5072962;28;48228;-85
2022/02/03 02:11:54;;;;;;;;;13.50;9.25;;;;;22.26;44.19;101472.09;5079809;27;45242;-86
2022/02/03 02:39:52;;;;;;;;;9.25;8.00;;;;;22.22;43.79;101416.38;5017986;28;45450;-85
2022/02/03 02:42:36;;;;;;;;;7.25;7.00;;;;;22.21;43.40;101407.53;5040118;28;47373;-85
2022/02/03 02:45:06;;;;;;;;;7.50;7.50;;;;;22.22;43.38;101390.66;5047699;27;45328;-83
2022/02/03 02:48:08;;;;;;;;;8.50;8.50;;;;;22.24;43.39;101385.28;5053974;28;45243;-83
2022/02/03 02:50:54;;;;;;;;;7.00;6.75;;;;;22.17;43.24;101363.34;5072344;28;45410;-83
2022/02/03 02:53:52;;;;;;;;;7.75;7.50;;;;;22.22;43.51;101363.19;5061118;28;46663;-83
2022/02/03 02:59:50;;;;;;;;;9.25;7.50;;;;;22.21;43.59;101341.06;5077144;28;45443;-83
2022/02/03 03:32:48;;;;;;;;;9.00;7.25;;;;;22.11;43.01;101264.28;5064204;28;45484;-83
2022/02/03 03:37:46;;;;;;;;;9.50;6.75;;;;;22.17;42.75;101261.44;5079641;28;45274;-84
2022/02/03 03:40:12;;;;;;;;;8.75;6.00;;;;;22.15;42.98;101255.28;5044824;28;45390;-83
2022/02/03 03:42:39;;;;;;;;;7.50;7.00;;;;;22.15;42.78;101266.81;5072696;28;45323;-83
2022/02/03 03:45:08;;;;;;;;;7.00;6.25;;;;;22.13;42.71;101260.66;5063948;28;45701;-83
2022/02/03 03:47:35;;;;;;;;;6.50;6.00;;;;;22.16;42.71;101268.56;5043672;28;47187;-83
2022/02/03 03:50:11;;;;;;;;;8.00;7.00;;;;;22.17;42.89;101261.44;5063022;28;45323;-83
2022/02/03 03:53:01;;;;;;;;;6.00;6.00;;;;;22.14;42.79;101254.41;5064208;28;45435;-83
2022/02/03 03:55:59;;;;;;;;;6.00;4.75;;;;;22.14;43.11;101253.53;5065553;28;45414;-83
2022/02/03 04:41:37;;;;;;;;;5.75;4.50;;;;;;;;5038311;28;45572;-82
2022/02/03 05:08:27;;;;;;;;;6.00;6.00;;;;;22.15;42.53;101168.44;5079401;28;46215;-83
2022/02/03 05:26:25;;;;;;;;;6.00;5.00;;;;;22.20;42.57;101171.81;5051418;28;45325;-84
2022/02/03 05:46:41;;;;;;;;;5.75;4.75;;;;;22.22;42.45;101154.00;5073578;28;45291;-85
2022/02/03 05:49:42;;;;;;;;;4.25;4.00;;;;;22.16;42.80;101143.59;5065116;28;45436;-85
2022/02/03 06:21:56;;;;;;;;;8.75;6.00;;;;;22.73;45.46;101102.63;5068642;28;45437;-74
2022/02/03 06:29:42;;;;;;;;;4.00;2.75;;;;;22.80;44.89;101095.31;5082306;28;45240;-76
2022/02/03 06:32:08;;;;;;;;;7.75;6.00;;;;;22.83;45.09;101100.50;5050148;28;45456;-76
2022/02/03 06:34:33;;;;;;;;;7.00;5.00;;;;;22.80;45.16;101095.31;5082057;28;45279;-75
2022/02/03 06:36:59;;;;;;;;;6.00;6.00;;;;;22.79;44.91;101081.13;5064091;28;63060;-76
2022/02/03 06:39:28;;;;;;;;;6.25;6.25;;;;;22.78;44.85;101066.09;5064326;28;56857;-76
2022/02/03 06:41:57;;;;;;;;;4.00;4.00;;;;;22.78;44.33;101066.09;5061540;28;45481;-75
2022/02/03 06:44:29;;;;;;;;;7.00;4.25;;;;;22.77;44.57;101069.69;5044699;28;45295;-73
2022/02/03 06:46:58;;;;;;;;;8.75;4.00;;;;;22.78;44.68;101071.41;5061625;28;45500;-76
2022/02/03 06:52:13;;;;;;;;;9.00;5.00;;;;;22.77;44.67;101071.47;5091657;27;45378;-78
2022/02/03 06:54:54;;;;;;;;;7.00;4.25;;;;;22.72;44.21;101061.00;5085762;27;45544;-78
2022/02/03 06:57:30;;;;;;;;;5.75;4.75;;;;;22.72;44.12;101063.66;5052796;28;47239;-81
2022/02/03 07:00:06;;;;;;;;;6.00;4.75;;;;;22.71;44.39;101061.03;5038284;28;45281;-77
2022/02/03 07:02:37;;;;;;;;;5.50;5.00;;;;;22.68;44.47;101058.50;5086511;27;45446;-75
2022/02/03 07:05:02;;;;;;;;;6.00;4.00;;;;;22.67;43.49;101060.28;5103201;27;45396;-74
2022/02/03 07:07:28;;;;;;;;;7.25;6.75;;;;;22.70;43.53;101069.97;5102824;27;45458;-71
2022/02/03 07:09:54;;;;;;;;;5.00;5.00;;;;;22.67;43.63;101072.72;5084517;27;45350;-74
2022/02/03 07:12:20;;;;;;;;;6.50;4.75;;;;;22.67;43.24;101084.22;5084228;27;45884;-74
2022/02/03 07:14:46;;;;;;;;;5.25;5.25;;;;;22.63;42.96;101071.09;5051211;27;45534;-76
2022/02/03 07:17:11;;;;;;;;;5.25;4.75;;;;;22.62;43.12;101070.22;5066959;27;46535;-75
2022/02/03 07:19:43;;;;;;;;;6.00;5.75;;;;;22.62;42.94;101077.34;5074385;27;45504;-76
2022/02/03 07:22:09;;;;;;;;;6.75;6.25;;;;;22.56;42.73;101059.78;5069572;27;45395;-75
2022/02/03 07:24:34;;;;;;;;;6.50;5.50;;;;;22.57;42.33;101072.16;5084197;27;48122;-77
2022/02/03 07:27:00;;;;;;;;;6.00;5.00;;;;;22.56;42.61;101076.63;5079137;27;53538;-77
2022/02/03 07:29:25;;;;;;;;;6.00;6.00;;;;;22.56;42.71;101086.41;5063426;28;45352;-79
2022/02/03 07:31:50;;;;;;;;;5.00;5.00;;;;;22.53;42.91;101079.41;5080298;27;51100;-79
2022/02/03 07:34:18;;;;;;;;;7.00;6.00;;;;;22.52;42.29;101090.97;5083767;27;57239;-78
2022/02/03 07:36:45;;;;;;;;;5.25;4.00;;;;;22.51;42.64;101078.59;5084318;27;45382;-79
2022/02/03 07:39:11;;;;;;;;;5.50;4.75;;;;;22.51;42.36;101075.06;5084312;27;45280;-79
2022/02/03 07:41:36;;;;;;;;;9.00;6.00;;;;;22.49;42.86;101082.19;5102579;27;45422;-79
2022/02/03 07:44:02;;;;;;;;;6.25;6.25;;;;;22.48;42.32;101081.34;5083738;27;45482;-78
2022/02/03 07:46:30;;;;;;;;;5.75;5.00;;;;;22.49;42.90;101074.22;5080163;28;47932;-79
2022/02/03 07:48:59;;;;;;;;;6.25;5.00;;;;;22.47;42.75;101070.75;5092401;27;45238;-79
2022/02/03 07:51:24;;;;;;;;;5.00;5.00;;;;;22.45;42.40;101070.81;5083738;27;45411;-78
2022/02/03 07:53:49;;;;;;;;;8.00;5.00;;;;;22.43;42.69;101080.66;5102107;27;45432;-79
2022/02/03 07:56:15;;;;;;;;;6.00;6.00;;;;;22.45;42.38;101085.91;5083452;27;46344;-79
2022/02/03 07:58:40;;;;;;;;;5.25;5.00;;;;;22.45;42.20;101076.13;5049538;27;45371;-79
2022/02/03 08:01:06;;;;;;;;;7.00;6.75;;;;;22.40;42.10;101054.13;5063436;28;45264;-77
2022/02/03 08:03:31;;;;;;;;;9.00;5.00;;;;;22.42;42.44;101072.72;5053712;28;45419;-78
2022/02/03 08:06:05;;;;;;;;;6.25;5.00;;;;;22.44;42.15;101069.09;5066531;27;46887;-78
2022/02/03 08:08:36;;;;;;;;;6.00;5.50;;;;;22.41;42.02;101071.81;5068331;27;45355;-74
2022/02/03 08:11:06;;;;;;;;;7.50;6.25;;;;;22.41;42.37;101077.16;5101769;27;45545;-76
2022/02/03 08:13:40;;;;;;;;;7.50;7.50;;;;;22.42;41.94;101067.41;5063631;28;45324;-76
2022/02/03 08:16:15;;;;;;;;;7.00;5.00;;;;;22.44;41.94;101068.22;5034010;28;46337;-84
2022/02/03 08:18:45;;;;;;;;;5.25;5.25;;;;;22.40;42.55;101062.13;5059161;27;45462;-83
2022/02/03 08:21:13;;;;;;;;;6.00;6.00;;;;;22.39;42.11;101072.81;5067553;27;45663;-84
2022/02/03 08:26:25;;;;;;;;;5.25;5.00;;;;;22.44;42.31;101079.72;5083088;27;46211;-78
2022/02/03 08:31:38;;;;;;;;;7.50;5.50;;;;;22.40;41.81;101071.88;5063036;28;45727;-75
2022/02/03 08:34:03;;;;;;;;;6.25;6.25;;;;;22.40;41.84;101072.75;5083042;27;45422;-76
2022/02/03 08:36:34;;;;;;;;;5.50;5.50;;;;;22.45;42.40;101084.13;5082921;27;45520;-77
2022/02/03 08:38:59;;;;;;;;;5.50;5.50;;;;;22.44;42.09;101077.06;5063902;28;45298;-76
2022/02/03 08:41:25;;;;;;;;;6.00;6.00;;;;;22.44;41.78;101074.41;5096121;27;45441;-77
2022/02/03 08:43:50;;;;;;;;;10.50;8.25;;;;;22.44;41.73;101065.56;5101188;27;45461;-76
2022/02/03 08:46:16;;;;;;;;;6.25;6.25;;;;;22.45;41.74;101061.97;5101214;27;46630;-76
2022/02/03 08:48:41;;;;;;;;;7.00;7.00;;;;;22.45;41.67;101051.34;5065780;27;45430;-77
2022/02/03 08:51:08;;;;;;;;;5.00;5.00;;;;;22.41;41.73;101047.03;5082430;27;45463;-79
2022/02/03 08:53:41;;;;;;;;;6.00;6.00;;;;;22.42;41.99;101051.44;5099908;27;45244;-80
2022/02/03 09:52:49;;;;;;;;;8.00;8.00;;;;;22.37;41.91;101011.69;5022316;28;1160914;-77
2022/02/03 09:58:16;;;;;;;;;7.00;7.00;;;;;22.37;41.73;101011.69;5019058;27;45423;-77
2022/02/03 10:03:36;;;;;;;;;9.50;8.00;;;;;22.33;41.59;101002.09;5062640;28;45355;-77
2022/02/03 10:06:08;;;;;;;;;9.50;9.50;;;;;22.34;41.57;100997.66;5081783;27;45190;-76
2022/02/03 10:08:34;;;;;;;;;6.75;6.00;;;;;22.31;41.72;100985.31;5045452;28;45436;-76
2022/02/03 10:11:27;;;;;;;;;6.25;6.25;;;;;22.35;41.77;101007.38;5080322;27;45347;-77
2022/02/03 10:13:53;;;;;;;;;7.50;7.00;;;;;22.33;41.49;100994.13;5064642;27;45474;-76
2022/02/03 10:16:21;;;;;;;;;7.75;6.25;;;;;22.33;41.23;101003.88;5081563;27;45376;-77
2022/02/03 10:18:48;;;;;;;;;8.75;7.50;;;;;22.32;41.08;101002.13;5064713;27;45405;-77
2022/02/03 10:21:15;;;;;;;;;7.50;6.50;;;;;22.33;41.64;101014.50;5100028;27;45275;-76
2022/02/03 10:23:58;;;;;;;;;5.75;5.75;;;;;22.34;41.26;101006.50;5078353;28;46138;-78
2022/02/03 10:26:46;;;;;;;;;7.00;7.00;;;;;22.34;41.08;101010.97;5037714;28;45289;-78
2022/02/03 10:29:19;;;;;;;;;7.00;7.00;;;;;22.37;41.21;101011.69;5064787;27;45627;-78
2022/02/03 10:31:44;;;;;;;;;9.75;7.75;;;;;22.36;41.58;101015.28;5065128;27;47150;-79
2022/02/03 10:34:12;;;;;;;;;8.00;6.25;;;;;22.39;41.08;101011.63;5061184;28;48475;-76
2022/02/03 10:37:08;;;;;;;;;8.25;8.25;;;;;22.35;39.42;101002.06;5096677;27;45354;-82
2022/02/03 10:40:23;;;;;;;;;10.75;10.00;;;;;22.20;39.81;101017.59;5066168;27;45462;-83
2022/02/03 10:43:15;;;;;;;;;12.00;8.75;;;;;22.04;39.54;101012.81;5067292;27;45453;-84
2022/02/03 10:46:11;;;;;;;;;13.00;12.75;;;;;21.94;38.78;101029.09;5054076;27;45507;-86
2022/02/03 10:49:11;;;;;;;;;10.25;10.00;;;;;21.78;38.44;101022.53;5068766;27;45270;-85
2022/02/03 10:52:16;;;;;;;;;10.00;9.00;;;;;21.76;39.28;101029.69;5071031;27;45441;-87
2022/02/03 10:57:48;;;;;;;;;7.75;7.75;;;;;21.66;38.58;101020.28;5063902;28;45352;-83
2022/02/03 11:02:35;;;;;;;;;10.50;10.50;;;;;21.47;38.30;101012.03;5067149;28;45380;-83
2022/02/03 11:10:50;;;;;;;;;13.50;11.50;;;;;21.26;38.69;100979.00;5090986;27;45405;-85
2022/02/03 11:12:54;;;;;;;;;12.50;11.25;;;;;21.22;38.61;100985.34;5057582;28;45435;-84
2022/02/03 11:15:20;;;;;;;;;8.00;8.00;;;;;21.21;38.83;100972.13;5045913;27;47509;-85
2022/02/03 11:17:49;;;;;;;;;13.75;10.25;;;;;21.22;38.47;100972.06;5067380;27;45505;-86
2022/02/03 11:20:17;;;;;;;;;11.75;10.75;;;;;21.18;38.68;100958.00;5048837;27;45404;-85
2022/02/03 11:22:50;;;;;;;;;11.00;11.00;;;;;21.13;37.89;100959.09;5067613;27;46029;-85
2022/02/03 11:25:24;;;;;;;;;9.75;9.75;;;;;21.06;38.32;100955.75;5069278;27;47868;-85
2022/02/03 11:28:46;;;;;;;;;13.50;11.25;;;;;21.05;38.06;100959.31;5085594;27;45175;-85
2022/02/03 12:05:22;;;;;;;;;10.75;10.75;;;;;20.70;38.78;100930.31;5076445;27;45392;-83
2022/02/03 12:19:33;;;;;;;;;13.75;12.00;;;;;20.56;38.27;100907.72;5063232;28;45309;-84
2022/02/03 12:22:27;;;;;;;;;11.00;11.00;;;;;20.57;38.95;100904.16;5049733;27;45615;-83
2022/02/03 12:25:26;;;;;;;;;16.50;13.75;;;;;20.68;38.84;100908.28;5086420;27;45212;-83
2022/02/03 12:31:38;;;;;;;;;15.00;13.75;;;;;20.77;40.23;100886.78;5082255;27;45388;-78
2022/02/03 12:38:49;;;;;;;;;11.25;10.50;;;;;20.81;41.60;100873.38;5070613;27;45253;-86
2022/02/03 12:41:19;;;;;;;;;14.25;12.00;;;;;20.77;41.42;100879.72;5069091;27;47123;-85
2022/02/03 12:44:02;;;;;;;;;16.50;13.50;;;;;20.75;41.14;100878.84;5037800;27;45356;-84
2022/02/03 12:46:28;;;;;;;;;10.75;10.75;;;;;20.70;39.70;100885.25;5067252;27;45340;-85
2022/02/03 12:48:57;;;;;;;;;13.25;11.25;;;;;20.69;40.19;100883.50;5062925;28;45264;-84
2022/02/03 12:51:23;;;;;;;;;16.50;11.00;;;;;20.69;40.12;100884.38;5079416;27;45404;-86
2022/02/03 12:53:48;;;;;;;;;13.25;11.75;;;;;20.71;39.88;100879.00;5066064;27;45257;-85
2022/02/03 12:56:14;;;;;;;;;12.75;11.00;;;;;20.69;39.91;100875.56;5062684;28;45266;-84
2022/02/03 12:58:44;;;;;;;;;11.75;10.75;;;;;20.72;39.88;100875.44;5041077;28;45231;-85
2022/02/03 13:01:13;;;;;;;;;10.00;8.00;;;;;20.67;39.36;100874.69;5046252;28;47148;-81
2022/02/03 13:03:42;;;;;;;;;13.50;11.75;;;;;20.64;40.02;100862.41;5075123;27;45284;-84
2022/02/03 13:06:12;;;;;;;;;10.50;9.50;;;;;20.67;39.91;100864.97;5049988;27;45427;-88
2022/02/03 13:08:38;;;;;;;;;13.50;11.00;;;;;20.75;39.59;100862.06;5049723;27;45470;-89
2022/02/03 13:11:15;;;;;;;;;12.00;11.00;;;;;20.73;39.68;100854.16;5066741;27;47393;-87
2022/02/03 13:13:55;;;;;;;;;17.25;12.50;;;;;20.76;39.46;100858.50;5052658;27;45392;-88
2022/02/03 13:16:21;;;;;;;;;11.75;11.00;;;;;20.75;39.45;100862.94;5048425;28;45291;-86
2022/02/03 13:19:12;;;;;;;;;12.25;12.25;;;;;20.81;39.66;100872.50;5079244;27;45298;-77
2022/02/03 13:22:10;;;;;;;;;12.25;10.75;;;;;20.81;38.69;100865.41;5050737;27;47806;-75
2022/02/03 13:24:48;;;;;;;;;13.00;13.00;;;;;20.74;39.53;100861.22;5066758;28;45336;-76
2022/02/03 13:27:20;;;;;;;;;12.75;12.00;;;;;20.73;38.86;100861.25;5063725;28;45352;-75
2022/02/03 13:30:11;;;;;;;;;10.00;9.50;;;;;20.68;39.39;100856.13;5066255;27;45419;-79
2022/02/03 13:32:40;;;;;;;;;17.50;12.75;;;;;20.65;38.75;100850.88;5084795;27;46718;-75
2022/02/03 13:35:33;;;;;;;;;12.50;12.00;;;;;20.63;39.22;100855.38;5066570;27;45289;-80
2022/02/03 13:38:04;;;;;;;;;36.00;31.50;;;;;20.54;39.69;100848.56;5085450;27;45566;-79
2022/02/03 13:40:29;;;;;;;;;52.75;37.75;;;;;20.56;40.45;100861.78;5081941;27;45251;-77
2022/02/03 13:43:07;;;;;;;;;34.25;31.25;;;;;20.50;40.53;100852.25;5081365;27;47215;-77
2022/02/03 13:45:32;;;;;;;;;33.25;29.50;;;;;20.51;41.32;100843.38;5083089;27;45305;-76
2022/02/03 13:47:58;;;;;;;;;23.50;20.25;;;;;20.58;41.30;100842.25;5082290;27;45361;-77
2022/02/03 13:50:26;;;;;;;;;18.50;16.00;;;;;20.64;41.06;100838.53;5064960;27;45614;-77
2022/02/03 13:53:01;;;;;;;;;25.25;21.75;;;;;20.67;41.68;100843.75;5081298;27;48231;-76
2022/02/03 14:18:12;;;;;;;;;21.00;17.25;;;;;20.70;40.25;100825.09;5066861;27;45456;-80
2022/02/03 14:20:41;;;;;;;;;14.75;13.25;;;;;20.64;40.36;100822.63;5083490;27;45357;-80
2022/02/03 14:28:17;;;;;;;;;14.50;14.50;;;;;20.64;40.47;100819.13;5081857;27;45248;-76
2022/02/03 14:30:46;;;;;;;;;22.00;14.75;;;;;20.67;40.17;100819.88;5103361;27;45447;-77
2022/02/03 14:33:16;;;;;;;;;19.00;17.50;;;;;20.69;40.54;100820.72;5066578;27;45489;-79
2022/02/03 14:35:43;;;;;;;;;17.50;14.25;;;;;20.69;40.14;100811.91;5064972;28;45499;-82
2022/02/03 14:38:18;;;;;;;;;18.00;13.25;;;;;20.67;40.19;100806.63;5062321;27;45201;-80
2022/02/03 14:43:17;;;;;;;;;14.75;13.25;;;;;20.63;39.66;100820.03;5069334;27;45225;-81
2022/02/03 14:45:42;;;;;;;;;15.25;15.25;;;;;20.55;39.66;100805.22;5084687;27;46535;-80
2022/02/03 14:48:10;;;;;;;;;14.00;12.50;;;;;20.55;39.72;100799.06;5101308;27;45239;-80
2022/02/03 14:50:36;;;;;;;;;13.25;11.00;;;;;20.48;39.59;100792.19;5084459;27;45501;-80
2022/02/03 14:53:09;;;;;;;;;17.25;17.25;;;;;20.48;39.43;100793.06;5080650;27;45737;-80
2022/02/03 15:00:48;;;;;;;;;17.75;15.50;;;;;20.52;40.31;100802.69;5102586;27;45316;-79
2022/02/03 15:03:13;;;;;;;;;13.25;12.50;;;;;20.54;40.08;100805.28;5084375;27;45555;-80
2022/02/03 15:05:40;;;;;;;;;14.50;13.00;;;;;20.60;39.98;100797.13;5101411;27;47181;-80
2022/02/03 15:08:15;;;;;;;;;11.25;11.25;;;;;20.61;39.53;100796.22;5067895;27;45337;-79
2022/02/03 15:10:44;;;;;;;;;16.00;14.25;;;;;20.68;39.69;100802.22;5084169;27;45360;-80
2022/02/03 15:13:48;;;;;;;;;17.50;14.75;;;;;20.65;39.65;100789.88;5064304;28;45194;-81
2022/02/03 15:16:02;;;;;;;;;11.75;10.75;;;;;20.67;39.54;100796.00;5086609;27;46039;-80
2022/02/03 15:18:28;;;;;;;;;17.50;15.25;;;;;20.67;39.73;100789.84;5068342;27;45217;-81
2022/02/03 15:20:53;;;;;;;;;13.50;10.75;;;;;20.78;39.62;100803.66;5063881;28;45373;-80
2022/02/03 15:23:19;;;;;;;;;13.50;10.50;;;;;20.75;39.24;100788.66;5074137;27;45498;-80
2022/02/03 15:25:45;;;;;;;;;11.00;11.00;;;;;20.76;39.30;100781.59;5103689;27;46345;-79
2022/02/03 15:28:10;;;;;;;;;12.00;10.75;;;;;20.75;39.35;100788.66;5084179;27;45416;-80
2022/02/03 15:30:36;;;;;;;;;12.25;10.00;;;;;20.71;39.14;100784.41;5102447;27;45374;-80
2022/02/03 15:33:01;;;;;;;;;10.50;10.50;;;;;20.75;39.07;100796.63;5101621;27;45412;-80
2022/02/03 15:35:34;;;;;;;;;12.50;10.50;;;;;20.71;39.21;100795.00;5083778;27;47141;-80
2022/02/03 15:38:01;;;;;;;;;13.00;11.00;;;;;20.68;39.32;100792.47;5084740;27;45322;-80
2022/02/03 15:40:28;;;;;;;;;15.25;12.50;;;;;20.65;39.00;100789.88;5084169;27;45373;-81
2022/02/03 15:43:25;;;;;;;;;10.50;10.50;;;;;20.64;39.48;100796.13;5089293;27;45284;-80
2022/02/03 15:45:54;;;;;;;;;11.00;11.00;;;;;20.64;39.37;100785.50;5068547;28;45527;-79
2022/02/03 15:51:12;;;;;;;;;13.50;12.50;;;;;20.54;39.20;100778.75;5064069;28;45796;-80
2022/02/03 16:17:37;;;;;;;;;11.25;10.25;;;;;20.63;39.78;100781.13;5097067;27;45959;-79
2022/02/03 16:23:28;;;;;;;;;11.50;11.25;;;;;20.67;39.24;100776.56;5033125;28;45591;-78
2022/02/03 16:26:40;;;;;;;;;11.75;11.75;;;;;20.62;39.59;100771.44;5075407;27;45560;-79
2022/02/03 16:53:20;;;;;;;;;12.00;10.00;;;;;20.64;39.71;100796.13;5062637;28;45248;-78
2022/02/03 16:55:47;;;;;;;;;12.25;11.75;;;;;20.73;40.48;100798.47;5072217;28;45393;-81
2022/02/03 16:58:13;;;;;;;;;18.25;13.00;;;;;20.83;40.69;100797.25;5082240;27;45547;-78
2022/02/03 17:00:38;;;;;;;;;13.75;11.75;;;;;20.92;40.87;100793.44;5100793;27;45390;-78
2022/02/03 17:03:06;;;;;;;;;14.50;10.50;;;;;21.05;40.80;100796.56;5100422;27;45594;-78
2022/02/03 17:05:37;;;;;;;;;13.50;12.00;;;;;21.17;40.96;100802.31;5100846;27;45319;-78
2022/02/03 17:08:13;;;;;;;;;10.25;10.25;;;;;21.21;40.76;100799.59;5069541;27;45407;-79
2022/02/03 17:10:39;;;;;;;;;12.25;11.50;;;;;21.32;41.51;100797.47;5100344;27;45469;-79
2022/02/03 17:13:11;;;;;;;;;17.50;13.75;;;;;21.37;44.26;100793.75;5081799;27;45351;-79
2022/02/03 17:15:41;;;;;;;;;16.00;14.25;;;;;21.47;45.02;100796.94;5064693;27;45502;-78
2022/02/03 17:18:09;;;;;;;;;13.75;13.75;;;;;21.59;44.57;100803.59;5100514;27;45290;-79
2022/02/03 17:20:40;;;;;;;;;19.25;18.25;;;;;21.62;47.93;100798.16;5081925;27;45251;-77
2022/02/03 17:23:08;;;;;;;;;21.25;19.75;;;;;21.62;47.19;100796.38;5101298;27;45240;-79
2022/02/03 17:25:50;;;;;;;;;17.25;15.00;;;;;21.66;45.84;100802.47;5074545;28;45296;-79
2022/02/03 17:28:32;;;;;;;;;18.50;14.00;;;;;21.72;46.57;100804.91;5060376;27;45343;-82
2022/02/03 17:31:08;;;;;;;;;17.25;15.50;;;;;21.80;46.68;100810.78;5078235;27;47235;-82
2022/02/03 18:17:19;;;;;;;;;10.00;10.00;;;;;22.12;42.30;100819.41;5068625;27;45370;-79
2022/02/03 18:47:39;;;;;;;;;14.50;14.50;;;;;22.24;42.92;100834.91;5077142;27;45972;-82
2022/02/03 18:55:04;;;;;;;;;17.50;14.00;;;;;22.30;43.10;100834.69;5085106;27;45546;-74
2022/02/03 18:57:39;;;;;;;;;15.25;11.25;;;;;22.28;42.85;100821.44;5102856;27;46254;-76
2022/02/03 19:00:31;;;;;;;;;13.25;12.25;;;;;22.34;43.08;100811.50;5102859;27;45302;-77
2022/02/03 19:21:02;;;;;;;;;14.00;12.00;;;;;22.36;42.67;100830.94;5066971;28;45264;-76
2022/02/03 19:58:03;;;;;;;;;17.75;15.25;;;;;22.13;40.26;100819.34;5084393;27;45391;-75
2022/02/03 20:08:23;;;;;;;;;26.00;19.75;;;;;22.24;41.12;100826.91;5074611;27;45408;-78
2022/02/03 20:10:51;;;;;;;;;15.75;15.75;;;;;22.25;41.39;100828.69;5069566;27;45379;-74
2022/02/03 20:13:16;;;;;;;;;16.50;15.00;;;;;22.29;41.23;100836.47;5101837;27;46107;-75
2022/02/03 20:15:42;;;;;;;;;20.75;18.00;;;;;22.29;41.86;100838.25;5049462;27;45445;-72
2022/02/03 20:18:12;;;;;;;;;18.00;15.25;;;;;22.32;41.72;100843.47;5066359;27;45515;-79
2022/02/03 20:20:38;;;;;;;;;19.50;14.75;;;;;22.33;41.41;100839.00;5046304;28;45450;-73
2022/02/03 20:23:08;;;;;;;;;15.00;13.00;;;;;22.36;41.99;100849.53;5053882;28;47265;-71
2022/02/03 20:25:39;;;;;;;;;16.50;14.75;;;;;22.36;41.66;100850.41;5079878;28;45415;-71
2022/02/03 20:28:05;;;;;;;;;16.50;14.00;;;;;22.36;41.63;100844.22;5038722;28;45462;-71
2022/02/03 20:30:30;;;;;;;;;16.75;14.25;;;;;22.38;42.11;100847.69;5049575;27;45325;-72
2022/02/03 20:32:56;;;;;;;;;15.75;11.00;;;;;22.37;42.23;100846.81;5066467;27;47177;-72
2022/02/03 20:35:21;;;;;;;;;17.50;15.00;;;;;22.38;42.14;100848.56;5066165;27;52159;-72
2022/02/03 20:37:47;;;;;;;;;16.75;11.00;;;;;22.38;42.03;100843.22;5066337;27;45338;-72
2022/02/03 20:40:12;;;;;;;;;17.25;15.00;;;;;22.38;41.67;100848.56;5049229;27;45516;-71
2022/02/03 20:42:38;;;;;;;;;15.25;12.75;;;;;22.38;42.15;100847.69;5064933;27;46278;-72
2022/02/03 20:45:15;;;;;;;;;14.25;13.50;;;;;22.38;42.00;100842.38;5067818;27;45483;-73
2022/02/03 20:47:41;;;;;;;;;12.25;11.75;;;;;22.39;41.94;100854.75;5069699;28;45265;-73
2022/02/03 20:50:09;;;;;;;;;16.00;12.25;;;;;22.38;42.14;100845.91;5061616;27;51106;-72
2022/02/03 20:52:34;;;;;;;;;12.00;11.00;;;;;22.39;41.83;100850.28;5066520;27;45418;-73
2022/02/03 20:55:00;;;;;;;;;16.75;13.25;;;;;22.40;42.14;100857.34;5065935;27;45297;-73
2022/02/03 20:57:25;;;;;;;;;14.25;11.75;;;;;22.40;41.79;100852.00;5060218;28;45289;-73
2022/02/03 21:02:27;;;;;;;;;14.75;11.75;;;;;22.41;41.82;100853.75;5082493;27;46143;-73
2022/02/03 21:05:01;;;;;;;;;17.00;14.25;;;;;22.42;41.58;100851.97;5061785;27;45498;-73
2022/02/03 21:07:26;;;;;;;;;15.25;12.75;;;;;22.41;42.18;100847.56;5064153;27;46566;-72
2022/02/03 21:09:52;;;;;;;;;15.00;13.25;;;;;22.44;41.65;100852.78;5062793;27;50449;-74
2022/02/03 21:12:17;;;;;;;;;16.75;14.75;;;;;22.42;42.97;100851.97;5061600;27;45555;-73
2022/02/03 21:14:43;;;;;;;;;15.25;10.50;;;;;22.41;43.09;100844.91;5047123;27;45483;-74
2022/02/03 21:17:08;;;;;;;;;13.50;13.50;;;;;22.42;43.09;100846.66;5046363;27;45471;-74
2022/02/03 21:19:34;;;;;;;;;16.25;12.25;;;;;22.43;43.31;100853.72;5062116;27;46608;-74
2022/02/03 21:22:00;;;;;;;;;13.75;12.50;;;;;22.43;43.32;100849.25;5046029;27;48210;-74
2022/02/03 21:24:25;;;;;;;;;12.50;11.50;;;;;22.40;42.87;100836.06;5078688;27;45433;-73
2022/02/03 21:26:53;;;;;;;;;16.25;13.50;;;;;22.45;43.24;100849.19;5062640;27;45446;-74
2022/02/03 21:29:19;;;;;;;;;12.25;12.00;;;;;22.42;42.89;100847.53;5097382;27;45406;-74
2022/02/03 21:31:45;;;;;;;;;15.25;11.25;;;;;22.43;43.29;100851.91;5045247;27;47193;-73
2022/02/03 21:34:15;;;;;;;;;12.75;12.50;;;;;22.42;42.74;100851.97;5079082;27;45201;-73
2022/02/03 21:36:42;;;;;;;;;17.50;14.25;;;;;22.41;42.62;100859.06;5062196;27;45427;-74
2022/02/03 21:39:08;;;;;;;;;16.00;13.75;;;;;22.44;42.82;100863.41;5097469;27;45602;-75
2022/02/03 21:44:22;;;;;;;;;12.75;10.50;;;;;22.43;42.91;100865.22;5066556;27;45360;-74
2022/02/03 21:46:47;;;;;;;;;14.00;12.00;;;;;22.40;42.70;100854.66;5047045;27;45562;-73
2022/02/03 21:49:23;;;;;;;;;12.50;11.75;;;;;22.44;42.97;100856.31;5079814;27;45553;-73
2022/02/03 21:51:53;;;;;;;;;15.25;12.25;;;;;22.44;42.46;100858.97;5079015;27;45470;-73
2022/02/03 21:54:19;;;;;;;;;12.00;9.75;;;;;22.42;42.96;100863.50;5045766;27;45445;-73
2022/02/03 21:56:45;;;;;;;;;12.25;11.25;;;;;22.45;42.67;100867.81;5045821;27;45462;-73
2022/02/03 21:59:11;;;;;;;;;14.25;12.25;;;;;22.44;42.63;100861.63;5045719;27;45527;-73
2022/02/03 22:01:40;;;;;;;;;14.00;12.50;;;;;22.43;43.22;100859.91;5079380;27;47391;-73
2022/02/03 22:04:06;;;;;;;;;10.75;10.50;;;;;22.44;43.02;100858.97;5045963;27;45464;-74
2022/02/03 22:06:32;;;;;;;;;14.25;11.50;;;;;22.44;42.92;100864.28;5046464;27;45206;-74